sensor_id;sensor_type;location;lat;lon;timestamp;temperature;humidity
30973;DHT22;25423;45.624;13.790;2023-02-26T00:00:18;5.40;99.90
30973;DHT22;25423;45.624;13.790;2023-02-26T00:02:46;5.40;99.90
30973;DHT22;25423;45.624;13.790;2023-02-26T00:05:14;5.30;99.90
30973;DHT22;25423;45.624;13.790;2023-02-26T00:07:41;5.20;99.90
30973;DHT22;25423;45.624;13.790;2023-02-26T00:10:08;5.10;99.90
30973;DHT22;25423;45.624;13.790;2023-02-26T00:12:35;5.10;99.90
30973;DHT22;25423;45.624;13.790;2023-02-26T00:15:03;5.20;99.90
30973;DHT22;25423;45.624;13.790;2023-02-26T00:19:55;5.00;99.90
30973;DHT22;25423;45.624;13.790;2023-02-26T00:22:21;5.00;99.90
30973;DHT22;25423;45.624;13.790;2023-02-26T00:24:47;5.00;99.90
30973;DHT22;25423;45.624;13.790;2023-02-26T00:27:13;5.00;99.90
30973;DHT22;25423;45.624;13.790;2023-02-26T00:29:39;5.00;99.90
30973;DHT22;25423;45.624;13.790;2023-02-26T00:32:06;5.00;99.90
30973;DHT22;25423;45.624;13.790;2023-02-26T00:34:32;5.00;99.90
30973;DHT22;25423;45.624;13.790;2023-02-26T00:42:05;5.00;99.90
30973;DHT22;25423;45.624;13.790;2023-02-26T00:44:31;5.00;99.90
30973;DHT22;25423;45.624;13.790;2023-02-26T00:47:02;5.00;99.90
30973;DHT22;25423;45.624;13.790;2023-02-26T00:49:55;5.00;99.90
30973;DHT22;25423;45.624;13.790;2023-02-26T00:55:15;5.10;99.90
30973;DHT22;25423;45.624;13.790;2023-02-26T00:57:41;5.10;99.90
30973;DHT22;25423;45.624;13.790;2023-02-26T01:00:08;5.10;99.90
30973;DHT22;25423;45.624;13.790;2023-02-26T01:02:35;5.20;99.90
30973;DHT22;25423;45.624;13.790;2023-02-26T01:05:02;5.20;99.90
30973;DHT22;25423;45.624;13.790;2023-02-26T01:07:30;5.20;99.90
30973;DHT22;25423;45.624;13.790;2023-02-26T01:09:58;5.20;99.90
30973;DHT22;25423;45.624;13.790;2023-02-26T01:12:23;5.30;99.90
30973;DHT22;25423;45.624;13.790;2023-02-26T01:14:49;5.30;99.90
30973;DHT22;25423;45.624;13.790;2023-02-26T01:17:24;5.40;99.90
30973;DHT22;25423;45.624;13.790;2023-02-26T01:19:53;5.50;99.90
30973;DHT22;25423;45.624;13.790;2023-02-26T01:24:50;5.50;99.90
30973;DHT22;25423;45.624;13.790;2023-02-26T01:27:17;5.50;99.90
30973;DHT22;25423;45.624;13.790;2023-02-26T01:29:43;5.50;99.90
30973;DHT22;25423;45.624;13.790;2023-02-26T01:32:16;5.40;99.90
30973;DHT22;25423;45.624;13.790;2023-02-26T01:37:20;5.50;99.90
30973;DHT22;25423;45.624;13.790;2023-02-26T01:42:32;5.60;99.90
30973;DHT22;25423;45.624;13.790;2023-02-26T01:45:09;5.60;99.90
30973;DHT22;25423;45.624;13.790;2023-02-26T01:47:38;5.60;99.90
30973;DHT22;25423;45.624;13.790;2023-02-26T01:50:09;5.70;99.90
30973;DHT22;25423;45.624;13.790;2023-02-26T01:55:15;5.70;99.90
30973;DHT22;25423;45.624;13.790;2023-02-26T01:57:41;5.80;99.90
30973;DHT22;25423;45.624;13.790;2023-02-26T02:00:08;5.80;99.90
30973;DHT22;25423;45.624;13.790;2023-02-26T02:02:34;5.80;99.90
30973;DHT22;25423;45.624;13.790;2023-02-26T02:05:03;5.80;99.90
30973;DHT22;25423;45.624;13.790;2023-02-26T02:07:31;5.80;99.90
30973;DHT22;25423;45.624;13.790;2023-02-26T02:09:57;5.80;99.90
30973;DHT22;25423;45.624;13.790;2023-02-26T02:33:44;5.90;99.90
30973;DHT22;25423;45.624;13.790;2023-02-26T02:36:15;6.00;99.90
30973;DHT22;25423;45.624;13.790;2023-02-26T02:39:03;6.10;99.90
30973;DHT22;25423;45.624;13.790;2023-02-26T02:41:34;6.20;99.90
30973;DHT22;25423;45.624;13.790;2023-02-26T02:44:02;6.20;99.90
30973;DHT22;25423;45.624;13.790;2023-02-26T02:46:31;6.30;99.90
30973;DHT22;25423;45.624;13.790;2023-02-26T02:51:25;6.30;99.90
30973;DHT22;25423;45.624;13.790;2023-02-26T02:53:58;6.40;99.90
30973;DHT22;25423;45.624;13.790;2023-02-26T02:56:26;6.40;99.90
30973;DHT22;25423;45.624;13.790;2023-02-26T02:58:58;6.40;99.90
30973;DHT22;25423;45.624;13.790;2023-02-26T03:01:25;6.40;99.90
30973;DHT22;25423;45.624;13.790;2023-02-26T03:06:17;6.40;99.90
30973;DHT22;25423;45.624;13.790;2023-02-26T03:08:43;6.40;99.90
30973;DHT22;25423;45.624;13.790;2023-02-26T03:11:10;6.50;99.90
30973;DHT22;25423;45.624;13.790;2023-02-26T03:13:36;6.50;99.90
30973;DHT22;25423;45.624;13.790;2023-02-26T03:18:57;6.50;99.90
30973;DHT22;25423;45.624;13.790;2023-02-26T03:26:38;6.60;99.90
30973;DHT22;25423;45.624;13.790;2023-02-26T03:29:07;6.70;99.90
30973;DHT22;25423;45.624;13.790;2023-02-26T03:31:35;6.70;99.90
30973;DHT22;25423;45.624;13.790;2023-02-26T03:34:04;6.70;99.90
30973;DHT22;25423;45.624;13.790;2023-02-26T03:39:32;6.80;99.90
30973;DHT22;25423;45.624;13.790;2023-02-26T03:44:52;6.70;99.90
30973;DHT22;25423;45.624;13.790;2023-02-26T03:47:18;6.70;99.90
30973;DHT22;25423;45.624;13.790;2023-02-26T03:49:47;6.80;99.90
30973;DHT22;25423;45.624;13.790;2023-02-26T03:52:13;6.70;99.90
30973;DHT22;25423;45.624;13.790;2023-02-26T03:54:42;6.70;99.90
30973;DHT22;25423;45.624;13.790;2023-02-26T03:57:10;6.70;99.90
30973;DHT22;25423;45.624;13.790;2023-02-26T03:59:35;6.80;99.90
30973;DHT22;25423;45.624;13.790;2023-02-26T04:02:07;6.80;99.90
30973;DHT22;25423;45.624;13.790;2023-02-26T04:04:37;6.80;99.90
30973;DHT22;25423;45.624;13.790;2023-02-26T04:07:07;6.80;99.90
30973;DHT22;25423;45.624;13.790;2023-02-26T04:09:33;6.80;99.90
30973;DHT22;25423;45.624;13.790;2023-02-26T04:11:59;6.80;99.90
30973;DHT22;25423;45.624;13.790;2023-02-26T04:14:25;6.80;99.90
30973;DHT22;25423;45.624;13.790;2023-02-26T04:16:51;6.80;99.90
30973;DHT22;25423;45.624;13.790;2023-02-26T04:19:17;6.80;99.90
30973;DHT22;25423;45.624;13.790;2023-02-26T04:21:43;6.90;99.90
30973;DHT22;25423;45.624;13.790;2023-02-26T04:24:09;6.90;99.90
30973;DHT22;25423;45.624;13.790;2023-02-26T04:26:35;6.90;99.90
30973;DHT22;25423;45.624;13.790;2023-02-26T04:29:00;6.90;99.90
30973;DHT22;25423;45.624;13.790;2023-02-26T04:31:28;6.90;99.90
30973;DHT22;25423;45.624;13.790;2023-02-26T04:33:54;6.90;99.90
30973;DHT22;25423;45.624;13.790;2023-02-26T04:36:20;6.90;99.90
30973;DHT22;25423;45.624;13.790;2023-02-26T04:38:45;6.90;99.90
30973;DHT22;25423;45.624;13.790;2023-02-26T04:41:11;6.90;99.90
30973;DHT22;25423;45.624;13.790;2023-02-26T04:43:37;6.90;99.90
30973;DHT22;25423;45.624;13.790;2023-02-26T04:46:03;6.90;99.90
30973;DHT22;25423;45.624;13.790;2023-02-26T04:48:29;6.90;99.90
30973;DHT22;25423;45.624;13.790;2023-02-26T04:50:54;6.90;99.90
30973;DHT22;25423;45.624;13.790;2023-02-26T04:53:20;6.80;99.90
30973;DHT22;25423;45.624;13.790;2023-02-26T04:55:46;6.80;99.90
30973;DHT22;25423;45.624;13.790;2023-02-26T04:58:12;6.70;99.90
30973;DHT22;25423;45.624;13.790;2023-02-26T05:00:37;6.70;99.90
30973;DHT22;25423;45.624;13.790;2023-02-26T05:03:04;6.70;99.90
30973;DHT22;25423;45.624;13.790;2023-02-26T05:05:30;6.60;99.90
30973;DHT22;25423;45.624;13.790;2023-02-26T05:07:56;6.60;99.90
30973;DHT22;25423;45.624;13.790;2023-02-26T05:10:22;6.60;99.90
30973;DHT22;25423;45.624;13.790;2023-02-26T05:12:47;6.60;99.90
30973;DHT22;25423;45.624;13.790;2023-02-26T05:15:13;6.60;99.90
30973;DHT22;25423;45.624;13.790;2023-02-26T05:17:39;6.60;99.90
30973;DHT22;25423;45.624;13.790;2023-02-26T05:20:05;6.60;99.90
30973;DHT22;25423;45.624;13.790;2023-02-26T05:22:34;6.50;99.90
30973;DHT22;25423;45.624;13.790;2023-02-26T05:25:00;6.50;99.90
30973;DHT22;25423;45.624;13.790;2023-02-26T05:27:26;6.40;99.90
30973;DHT22;25423;45.624;13.790;2023-02-26T05:29:52;6.50;99.90
30973;DHT22;25423;45.624;13.790;2023-02-26T05:32:17;6.40;99.90
30973;DHT22;25423;45.624;13.790;2023-02-26T05:34:43;6.40;99.90
30973;DHT22;25423;45.624;13.790;2023-02-26T05:37:09;6.40;99.90
30973;DHT22;25423;45.624;13.790;2023-02-26T05:39:35;6.30;99.90
30973;DHT22;25423;45.624;13.790;2023-02-26T05:42:00;6.40;99.90
30973;DHT22;25423;45.624;13.790;2023-02-26T05:44:26;6.30;99.90
30973;DHT22;25423;45.624;13.790;2023-02-26T05:46:52;6.30;99.90
30973;DHT22;25423;45.624;13.790;2023-02-26T05:49:17;6.30;99.90
30973;DHT22;25423;45.624;13.790;2023-02-26T05:51:43;6.30;99.90
30973;DHT22;25423;45.624;13.790;2023-02-26T05:54:09;6.30;99.90
30973;DHT22;25423;45.624;13.790;2023-02-26T05:56:35;6.30;99.90
30973;DHT22;25423;45.624;13.790;2023-02-26T05:59:01;6.30;99.90
30973;DHT22;25423;45.624;13.790;2023-02-26T06:01:27;6.40;99.90
30973;DHT22;25423;45.624;13.790;2023-02-26T06:03:52;6.40;99.90
30973;DHT22;25423;45.624;13.790;2023-02-26T06:06:18;6.30;99.90
30973;DHT22;25423;45.624;13.790;2023-02-26T06:08:46;6.30;99.90
30973;DHT22;25423;45.624;13.790;2023-02-26T06:11:12;6.20;99.90
30973;DHT22;25423;45.624;13.790;2023-02-26T06:13:37;6.20;99.90
30973;DHT22;25423;45.624;13.790;2023-02-26T06:16:03;6.20;99.90
30973;DHT22;25423;45.624;13.790;2023-02-26T06:18:29;6.20;99.90
30973;DHT22;25423;45.624;13.790;2023-02-26T06:20:56;6.20;99.90
30973;DHT22;25423;45.624;13.790;2023-02-26T06:23:22;6.20;99.90
30973;DHT22;25423;45.624;13.790;2023-02-26T06:25:49;6.20;99.90
30973;DHT22;25423;45.624;13.790;2023-02-26T06:28:15;6.20;99.90
30973;DHT22;25423;45.624;13.790;2023-02-26T06:30:40;6.20;99.90
30973;DHT22;25423;45.624;13.790;2023-02-26T06:33:06;6.20;99.90
30973;DHT22;25423;45.624;13.790;2023-02-26T06:35:32;6.30;99.90
30973;DHT22;25423;45.624;13.790;2023-02-26T06:37:57;6.30;99.90
30973;DHT22;25423;45.624;13.790;2023-02-26T06:40:23;6.30;99.90
30973;DHT22;25423;45.624;13.790;2023-02-26T06:42:49;6.30;99.90
30973;DHT22;25423;45.624;13.790;2023-02-26T06:45:14;6.30;99.90
30973;DHT22;25423;45.624;13.790;2023-02-26T06:47:40;6.30;99.90
30973;DHT22;25423;45.624;13.790;2023-02-26T06:50:06;6.20;99.90
30973;DHT22;25423;45.624;13.790;2023-02-26T06:52:32;6.20;99.90
30973;DHT22;25423;45.624;13.790;2023-02-26T06:54:58;6.20;99.90
30973;DHT22;25423;45.624;13.790;2023-02-26T06:57:24;6.20;99.90
30973;DHT22;25423;45.624;13.790;2023-02-26T06:59:49;6.10;99.90
30973;DHT22;25423;45.624;13.790;2023-02-26T07:02:16;6.10;99.90
30973;DHT22;25423;45.624;13.790;2023-02-26T07:04:42;6.10;99.90
30973;DHT22;25423;45.624;13.790;2023-02-26T07:07:08;6.20;99.90
30973;DHT22;25423;45.624;13.790;2023-02-26T07:09:34;6.20;99.90
30973;DHT22;25423;45.624;13.790;2023-02-26T07:11:59;6.10;99.90
30973;DHT22;25423;45.624;13.790;2023-02-26T07:14:25;6.10;99.90
30973;DHT22;25423;45.624;13.790;2023-02-26T07:16:51;6.10;99.90
30973;DHT22;25423;45.624;13.790;2023-02-26T07:19:16;6.10;99.90
30973;DHT22;25423;45.624;13.790;2023-02-26T07:21:42;6.00;99.90
30973;DHT22;25423;45.624;13.790;2023-02-26T07:24:08;5.90;99.90
30973;DHT22;25423;45.624;13.790;2023-02-26T07:26:33;5.90;99.90
30973;DHT22;25423;45.624;13.790;2023-02-26T07:28:59;5.90;99.90
30973;DHT22;25423;45.624;13.790;2023-02-26T07:31:25;5.90;99.90
30973;DHT22;25423;45.624;13.790;2023-02-26T07:33:50;5.80;99.90
30973;DHT22;25423;45.624;13.790;2023-02-26T07:36:16;5.80;99.90
30973;DHT22;25423;45.624;13.790;2023-02-26T07:38:42;5.80;99.90
30973;DHT22;25423;45.624;13.790;2023-02-26T07:41:07;5.80;99.90
30973;DHT22;25423;45.624;13.790;2023-02-26T07:43:33;5.80;99.90
30973;DHT22;25423;45.624;13.790;2023-02-26T07:45:59;5.80;99.90
30973;DHT22;25423;45.624;13.790;2023-02-26T07:48:24;5.80;99.90
30973;DHT22;25423;45.624;13.790;2023-02-26T07:50:51;5.80;99.90
30973;DHT22;25423;45.624;13.790;2023-02-26T07:53:17;5.80;99.90
30973;DHT22;25423;45.624;13.790;2023-02-26T07:55:43;5.80;99.90
30973;DHT22;25423;45.624;13.790;2023-02-26T07:58:08;5.80;99.90
30973;DHT22;25423;45.624;13.790;2023-02-26T08:00:34;5.80;99.90
30973;DHT22;25423;45.624;13.790;2023-02-26T08:03:00;5.80;99.90
30973;DHT22;25423;45.624;13.790;2023-02-26T08:05:25;5.80;99.90
30973;DHT22;25423;45.624;13.790;2023-02-26T08:07:51;5.80;99.90
30973;DHT22;25423;45.624;13.790;2023-02-26T08:10:17;5.80;99.90
30973;DHT22;25423;45.624;13.790;2023-02-26T08:12:42;5.80;99.90
30973;DHT22;25423;45.624;13.790;2023-02-26T08:15:11;5.90;99.90
30973;DHT22;25423;45.624;13.790;2023-02-26T08:17:39;5.90;99.90
30973;DHT22;25423;45.624;13.790;2023-02-26T08:20:05;5.90;99.90
30973;DHT22;25423;45.624;13.790;2023-02-26T08:22:31;5.90;99.90
30973;DHT22;25423;45.624;13.790;2023-02-26T08:24:57;5.90;99.90
30973;DHT22;25423;45.624;13.790;2023-02-26T08:27:22;5.90;99.90
30973;DHT22;25423;45.624;13.790;2023-02-26T08:29:48;5.90;99.90
30973;DHT22;25423;45.624;13.790;2023-02-26T08:32:15;5.90;99.90
30973;DHT22;25423;45.624;13.790;2023-02-26T08:34:42;6.00;99.90
30973;DHT22;25423;45.624;13.790;2023-02-26T08:37:07;5.90;99.90
30973;DHT22;25423;45.624;13.790;2023-02-26T08:39:36;5.90;99.90
30973;DHT22;25423;45.624;13.790;2023-02-26T08:42:06;5.90;99.90
30973;DHT22;25423;45.624;13.790;2023-02-26T08:44:32;5.90;99.90
30973;DHT22;25423;45.624;13.790;2023-02-26T08:46:58;5.90;99.90
30973;DHT22;25423;45.624;13.790;2023-02-26T08:49:24;5.80;99.90
30973;DHT22;25423;45.624;13.790;2023-02-26T08:51:49;5.80;99.90
30973;DHT22;25423;45.624;13.790;2023-02-26T08:54:15;5.80;99.90
30973;DHT22;25423;45.624;13.790;2023-02-26T08:56:41;5.80;99.90
30973;DHT22;25423;45.624;13.790;2023-02-26T08:59:06;5.80;99.90
30973;DHT22;25423;45.624;13.790;2023-02-26T09:01:34;5.80;99.90
30973;DHT22;25423;45.624;13.790;2023-02-26T09:04:00;5.80;99.90
30973;DHT22;25423;45.624;13.790;2023-02-26T09:06:25;5.80;99.90
30973;DHT22;25423;45.624;13.790;2023-02-26T09:08:51;5.80;99.90
30973;DHT22;25423;45.624;13.790;2023-02-26T09:11:17;5.80;99.90
30973;DHT22;25423;45.624;13.790;2023-02-26T09:13:42;5.90;99.90
30973;DHT22;25423;45.624;13.790;2023-02-26T09:16:08;5.90;99.90
30973;DHT22;25423;45.624;13.790;2023-02-26T09:18:34;5.90;99.90
30973;DHT22;25423;45.624;13.790;2023-02-26T09:21:00;6.00;99.90
30973;DHT22;25423;45.624;13.790;2023-02-26T09:23:25;6.10;99.90
30973;DHT22;25423;45.624;13.790;2023-02-26T09:25:53;6.10;99.90
30973;DHT22;25423;45.624;13.790;2023-02-26T09:28:19;6.20;99.90
30973;DHT22;25423;45.624;13.790;2023-02-26T09:30:45;6.10;99.90
30973;DHT22;25423;45.624;13.790;2023-02-26T09:33:10;6.10;99.90
30973;DHT22;25423;45.624;13.790;2023-02-26T09:35:36;6.10;99.90
30973;DHT22;25423;45.624;13.790;2023-02-26T09:38:02;6.20;99.90
30973;DHT22;25423;45.624;13.790;2023-02-26T09:43:29;6.20;99.90
30973;DHT22;25423;45.624;13.790;2023-02-26T09:45:52;6.40;99.90
30973;DHT22;25423;45.624;13.790;2023-02-26T09:48:19;6.40;99.90
30973;DHT22;25423;45.624;13.790;2023-02-26T09:50:46;6.40;99.90
30973;DHT22;25423;45.624;13.790;2023-02-26T09:53:15;6.40;99.90
30973;DHT22;25423;45.624;13.790;2023-02-26T09:55:46;6.50;99.90
30973;DHT22;25423;45.624;13.790;2023-02-26T10:05:44;6.50;99.90
30973;DHT22;25423;45.624;13.790;2023-02-26T10:08:14;6.50;99.90
30973;DHT22;25423;45.624;13.790;2023-02-26T10:13:09;6.50;99.90
30973;DHT22;25423;45.624;13.790;2023-02-26T10:15:41;6.60;99.90
30973;DHT22;25423;45.624;13.790;2023-02-26T10:18:12;6.60;99.90
30973;DHT22;25423;45.624;13.790;2023-02-26T10:23:37;6.60;99.90
30973;DHT22;25423;45.624;13.790;2023-02-26T10:26:06;6.60;99.90
30973;DHT22;25423;45.624;13.790;2023-02-26T10:36:34;6.60;99.90
30973;DHT22;25423;45.624;13.790;2023-02-26T10:39:15;6.70;99.90
30973;DHT22;25423;45.624;13.790;2023-02-26T10:41:44;6.70;99.90
30973;DHT22;25423;45.624;13.790;2023-02-26T10:44:18;6.70;99.90
30973;DHT22;25423;45.624;13.790;2023-02-26T10:49:34;6.60;99.90
30973;DHT22;25423;45.624;13.790;2023-02-26T10:52:12;6.70;99.90
30973;DHT22;25423;45.624;13.790;2023-02-26T10:54:40;6.60;99.90
30973;DHT22;25423;45.624;13.790;2023-02-26T10:57:17;6.70;99.90
30973;DHT22;25423;45.624;13.790;2023-02-26T10:59:45;6.60;99.90
30973;DHT22;25423;45.624;13.790;2023-02-26T11:02:31;6.60;99.90
30973;DHT22;25423;45.624;13.790;2023-02-26T11:04:57;6.50;99.90
30973;DHT22;25423;45.624;13.790;2023-02-26T11:07:23;6.50;99.90
30973;DHT22;25423;45.624;13.790;2023-02-26T11:09:51;6.50;99.90
30973;DHT22;25423;45.624;13.790;2023-02-26T11:12:19;6.50;99.90
30973;DHT22;25423;45.624;13.790;2023-02-26T11:14:48;6.60;99.90
30973;DHT22;25423;45.624;13.790;2023-02-26T11:19:41;6.50;99.90
30973;DHT22;25423;45.624;13.790;2023-02-26T11:22:12;6.50;99.90
30973;DHT22;25423;45.624;13.790;2023-02-26T11:24:45;6.50;99.90
30973;DHT22;25423;45.624;13.790;2023-02-26T11:27:13;6.40;99.90
30973;DHT22;25423;45.624;13.790;2023-02-26T11:29:40;6.30;99.90
30973;DHT22;25423;45.624;13.790;2023-02-26T11:32:17;6.40;99.90
30973;DHT22;25423;45.624;13.790;2023-02-26T11:34:50;6.30;99.90
30973;DHT22;25423;45.624;13.790;2023-02-26T11:37:20;6.30;99.90
30973;DHT22;25423;45.624;13.790;2023-02-26T11:39:46;6.30;99.90
30973;DHT22;25423;45.624;13.790;2023-02-26T11:42:15;6.30;99.90
30973;DHT22;25423;45.624;13.790;2023-02-26T11:44:43;6.40;99.90
30973;DHT22;25423;45.624;13.790;2023-02-26T11:47:11;6.40;99.90
30973;DHT22;25423;45.624;13.790;2023-02-26T11:49:41;6.40;99.90
30973;DHT22;25423;45.624;13.790;2023-02-26T11:54:46;6.40;99.90
30973;DHT22;25423;45.624;13.790;2023-02-26T11:57:17;6.40;99.90
30973;DHT22;25423;45.624;13.790;2023-02-26T11:59:46;6.40;99.90
30973;DHT22;25423;45.624;13.790;2023-02-26T12:02:13;6.40;99.90
30973;DHT22;25423;45.624;13.790;2023-02-26T12:04:42;6.40;99.90
30973;DHT22;25423;45.624;13.790;2023-02-26T12:07:09;6.50;99.90
30973;DHT22;25423;45.624;13.790;2023-02-26T12:09:37;6.40;99.90
30973;DHT22;25423;45.624;13.790;2023-02-26T12:17:06;6.40;99.90
30973;DHT22;25423;45.624;13.790;2023-02-26T12:32:15;6.40;99.90
30973;DHT22;25423;45.624;13.790;2023-02-26T12:37:24;6.40;99.90
30973;DHT22;25423;45.624;13.790;2023-02-26T12:45:28;6.40;99.90
30973;DHT22;25423;45.624;13.790;2023-02-26T12:50:41;6.50;99.90
30973;DHT22;25423;45.624;13.790;2023-02-26T12:58:24;6.50;99.90
30973;DHT22;25423;45.624;13.790;2023-02-26T13:00:55;6.50;99.90
30973;DHT22;25423;45.624;13.790;2023-02-26T13:03:47;6.50;99.90
30973;DHT22;25423;45.624;13.790;2023-02-26T13:22:32;6.80;99.90
30973;DHT22;25423;45.624;13.790;2023-02-26T13:24:55;6.70;99.90
30973;DHT22;25423;45.624;13.790;2023-02-26T13:27:24;6.60;99.90
30973;DHT22;25423;45.624;13.790;2023-02-26T13:29:53;6.70;99.90
30973;DHT22;25423;45.624;13.790;2023-02-26T13:32:21;6.60;99.90
30973;DHT22;25423;45.624;13.790;2023-02-26T13:34:49;6.70;99.90
30973;DHT22;25423;45.624;13.790;2023-02-26T13:39:51;6.70;99.90
30973;DHT22;25423;45.624;13.790;2023-02-26T13:42:32;6.70;99.90
30973;DHT22;25423;45.624;13.790;2023-02-26T13:52:52;6.80;99.90
30973;DHT22;25423;45.624;13.790;2023-02-26T13:55:37;6.90;99.90
30973;DHT22;25423;45.624;13.790;2023-02-26T14:01:06;6.90;99.90
30973;DHT22;25423;45.624;13.790;2023-02-26T14:03:34;6.80;99.90
30973;DHT22;25423;45.624;13.790;2023-02-26T14:10:58;6.70;99.90
30973;DHT22;25423;45.624;13.790;2023-02-26T14:13:37;6.50;99.90
30973;DHT22;25423;45.624;13.790;2023-02-26T14:16:20;6.50;99.90
30973;DHT22;25423;45.624;13.790;2023-02-26T14:21:54;6.40;99.90
30973;DHT22;25423;45.624;13.790;2023-02-26T14:24:01;6.40;99.90
30973;DHT22;25423;45.624;13.790;2023-02-26T14:26:31;6.40;99.90
30973;DHT22;25423;45.624;13.790;2023-02-26T14:29:19;6.40;99.90
30973;DHT22;25423;45.624;13.790;2023-02-26T14:34:24;6.30;99.90
30973;DHT22;25423;45.624;13.790;2023-02-26T14:36:55;6.30;99.90
30973;DHT22;25423;45.624;13.790;2023-02-26T14:39:27;6.30;99.90
30973;DHT22;25423;45.624;13.790;2023-02-26T14:41:58;6.20;99.90
30973;DHT22;25423;45.624;13.790;2023-02-26T14:44:25;6.10;99.90
30973;DHT22;25423;45.624;13.790;2023-02-26T14:46:51;6.10;99.90
30973;DHT22;25423;45.624;13.790;2023-02-26T14:49:28;6.10;99.90
30973;DHT22;25423;45.624;13.790;2023-02-26T15:02:11;6.00;99.90
30973;DHT22;25423;45.624;13.790;2023-02-26T15:25:37;6.00;99.90
30973;DHT22;25423;45.624;13.790;2023-02-26T15:28:04;6.00;99.90
30973;DHT22;25423;45.624;13.790;2023-02-26T15:30:31;6.00;99.90
30973;DHT22;25423;45.624;13.790;2023-02-26T15:32:58;6.00;99.90
30973;DHT22;25423;45.624;13.790;2023-02-26T15:35:25;5.90;99.90
30973;DHT22;25423;45.624;13.790;2023-02-26T15:37:52;5.90;99.90
30973;DHT22;25423;45.624;13.790;2023-02-26T15:40:18;5.80;99.90
30973;DHT22;25423;45.624;13.790;2023-02-26T15:42:44;5.90;99.90
30973;DHT22;25423;45.624;13.790;2023-02-26T15:45:21;5.90;99.90
30973;DHT22;25423;45.624;13.790;2023-02-26T15:47:53;5.90;99.90
30973;DHT22;25423;45.624;13.790;2023-02-26T15:50:19;5.90;99.90
30973;DHT22;25423;45.624;13.790;2023-02-26T15:52:47;5.90;99.90
30973;DHT22;25423;45.624;13.790;2023-02-26T15:55:15;5.90;99.90
30973;DHT22;25423;45.624;13.790;2023-02-26T15:57:42;5.90;99.90
30973;DHT22;25423;45.624;13.790;2023-02-26T16:00:09;5.90;99.90
30973;DHT22;25423;45.624;13.790;2023-02-26T16:02:35;6.00;99.90
30973;DHT22;25423;45.624;13.790;2023-02-26T16:05:02;6.00;99.90
30973;DHT22;25423;45.624;13.790;2023-02-26T16:07:28;6.10;99.90
30973;DHT22;25423;45.624;13.790;2023-02-26T16:09:54;6.00;99.90
30973;DHT22;25423;45.624;13.790;2023-02-26T16:14:53;6.10;99.90
30973;DHT22;25423;45.624;13.790;2023-02-26T16:17:25;6.10;99.90
30973;DHT22;25423;45.624;13.790;2023-02-26T16:19:51;6.10;99.90
30973;DHT22;25423;45.624;13.790;2023-02-26T16:24:47;6.10;99.90
30973;DHT22;25423;45.624;13.790;2023-02-26T16:27:15;6.10;99.90
30973;DHT22;25423;45.624;13.790;2023-02-26T16:29:44;6.10;99.90
30973;DHT22;25423;45.624;13.790;2023-02-26T16:32:11;6.10;99.90
30973;DHT22;25423;45.624;13.790;2023-02-26T16:37:17;6.20;99.90
30973;DHT22;25423;45.624;13.790;2023-02-26T16:39:44;6.20;99.90
30973;DHT22;25423;45.624;13.790;2023-02-26T16:42:14;6.10;99.90
30973;DHT22;25423;45.624;13.790;2023-02-26T16:47:29;6.00;99.90
30973;DHT22;25423;45.624;13.790;2023-02-26T16:49:55;6.10;99.90
30973;DHT22;25423;45.624;13.790;2023-02-26T16:52:21;6.10;99.90
30973;DHT22;25423;45.624;13.790;2023-02-26T16:54:52;6.00;99.90
30973;DHT22;25423;45.624;13.790;2023-02-26T16:57:23;6.00;99.90
30973;DHT22;25423;45.624;13.790;2023-02-26T16:59:54;6.00;99.90
30973;DHT22;25423;45.624;13.790;2023-02-26T17:02:25;6.00;99.90
30973;DHT22;25423;45.624;13.790;2023-02-26T17:04:58;5.90;99.90
30973;DHT22;25423;45.624;13.790;2023-02-26T17:07:33;6.00;99.90
30973;DHT22;25423;45.624;13.790;2023-02-26T17:10:04;6.00;99.90
30973;DHT22;25423;45.624;13.790;2023-02-26T17:12:44;6.00;99.90
30973;DHT22;25423;45.624;13.790;2023-02-26T17:15:18;6.00;99.90
30973;DHT22;25423;45.624;13.790;2023-02-26T17:17:45;5.90;99.90
30973;DHT22;25423;45.624;13.790;2023-02-26T17:20:11;5.90;99.90
30973;DHT22;25423;45.624;13.790;2023-02-26T17:22:37;5.90;99.90
30973;DHT22;25423;45.624;13.790;2023-02-26T17:25:03;6.00;99.90
30973;DHT22;25423;45.624;13.790;2023-02-26T17:27:32;5.90;99.90
30973;DHT22;25423;45.624;13.790;2023-02-26T17:29:58;6.00;99.90
30973;DHT22;25423;45.624;13.790;2023-02-26T17:32:26;5.90;99.90
30973;DHT22;25423;45.624;13.790;2023-02-26T17:34:52;5.80;99.90
30973;DHT22;25423;45.624;13.790;2023-02-26T17:37:18;5.80;99.90
30973;DHT22;25423;45.624;13.790;2023-02-26T17:39:44;5.80;99.90
30973;DHT22;25423;45.624;13.790;2023-02-26T17:42:11;5.70;99.90
30973;DHT22;25423;45.624;13.790;2023-02-26T17:44:37;5.70;99.90
30973;DHT22;25423;45.624;13.790;2023-02-26T17:47:03;5.70;99.90
30973;DHT22;25423;45.624;13.790;2023-02-26T17:49:28;5.70;99.90
30973;DHT22;25423;45.624;13.790;2023-02-26T17:51:54;5.60;99.90
30973;DHT22;25423;45.624;13.790;2023-02-26T17:54:20;5.60;99.90
30973;DHT22;25423;45.624;13.790;2023-02-26T17:56:45;5.60;99.90
30973;DHT22;25423;45.624;13.790;2023-02-26T17:59:11;5.60;99.90
30973;DHT22;25423;45.624;13.790;2023-02-26T18:01:37;5.60;99.90
30973;DHT22;25423;45.624;13.790;2023-02-26T18:04:03;5.60;99.90
30973;DHT22;25423;45.624;13.790;2023-02-26T18:06:33;5.60;99.90
30973;DHT22;25423;45.624;13.790;2023-02-26T18:09:00;5.70;99.90
30973;DHT22;25423;45.624;13.790;2023-02-26T18:11:26;5.80;99.90
30973;DHT22;25423;45.624;13.790;2023-02-26T18:13:51;5.70;99.90
30973;DHT22;25423;45.624;13.790;2023-02-26T18:16:21;5.70;99.90
30973;DHT22;25423;45.624;13.790;2023-02-26T18:18:47;5.60;99.90
30973;DHT22;25423;45.624;13.790;2023-02-26T18:21:13;5.60;99.90
30973;DHT22;25423;45.624;13.790;2023-02-26T18:23:39;5.60;99.90
30973;DHT22;25423;45.624;13.790;2023-02-26T18:26:05;5.60;99.90
30973;DHT22;25423;45.624;13.790;2023-02-26T18:28:31;5.60;99.90
30973;DHT22;25423;45.624;13.790;2023-02-26T18:30:57;5.60;99.90
30973;DHT22;25423;45.624;13.790;2023-02-26T18:33:23;5.50;99.90
30973;DHT22;25423;45.624;13.790;2023-02-26T18:35:50;5.50;99.90
30973;DHT22;25423;45.624;13.790;2023-02-26T18:38:18;5.50;99.90
30973;DHT22;25423;45.624;13.790;2023-02-26T18:40:44;5.50;99.90
30973;DHT22;25423;45.624;13.790;2023-02-26T18:43:10;5.40;99.90
30973;DHT22;25423;45.624;13.790;2023-02-26T18:45:39;5.40;99.90
30973;DHT22;25423;45.624;13.790;2023-02-26T18:48:05;5.40;99.90
30973;DHT22;25423;45.624;13.790;2023-02-26T18:50:31;5.50;99.90
30973;DHT22;25423;45.624;13.790;2023-02-26T18:52:57;5.50;99.90
30973;DHT22;25423;45.624;13.790;2023-02-26T18:55:22;5.50;99.90
30973;DHT22;25423;45.624;13.790;2023-02-26T18:57:48;5.50;99.90
30973;DHT22;25423;45.624;13.790;2023-02-26T19:00:14;5.50;99.90